Time;durP1;ratioP1;P1;durP2;ratioP2;P2;SDS_P1;SDS_P2;PMS_P1;PMS_P2;Temp;Humidity;BMP_temperature;BMP_pressure;BME280_temperature;BME280_humidity;BME280_pressure;Samples;Min_cycle;Max_cycle;Signal;HPM_P1;HPM_P2
2021/07/07 00:01:51;;;;;;;1344.22;919.03;;;;;;;;;;5224681;27;20540;-85
2021/07/07 00:04:20;;;;;;;1067.50;846.97;;;;;;;;;;5223047;27;20052;-84
2021/07/07 00:06:48;;;;;;;1361.07;917.13;;;;;;;;;;5224789;27;20022;-85
2021/07/07 00:09:17;;;;;;;1438.93;942.22;;;;;;;;;;5206013;27;20030;-85
2021/07/07 00:11:46;;;;;;;1479.57;938.47;;;;;;;;;;5222833;27;20174;-85
2021/07/07 00:14:14;;;;;;;1315.60;905.53;;;;;;;;;;5223886;27;20526;-85
2021/07/07 00:16:43;;;;;;;1076.07;842.65;;;;;;;;;;5224606;27;20070;-85
2021/07/07 00:19:12;;;;;;;1446.07;928.58;;;;;;;;;;5225084;27;20507;-85
2021/07/07 00:21:41;;;;;;;939.17;792.85;;;;;;;;;;5224257;27;20026;-85
2021/07/07 00:24:11;;;;;;;1253.15;896.55;;;;;;;;;;5204674;27;20034;-85
2021/07/07 00:26:40;;;;;;;1303.10;907.13;;;;;;;;;;5226751;27;20029;-86
2021/07/07 00:29:08;;;;;;;1285.25;867.35;;;;;;;;;;5222868;27;20401;-85
2021/07/07 00:31:37;;;;;;;1188.40;847.72;;;;;;;;;;5225149;27;20736;-84
2021/07/07 00:34:06;;;;;;;807.60;719.80;;;;;;;;;;5222842;27;20030;-85
2021/07/07 00:36:35;;;;;;;1092.05;841.47;;;;;;;;;;5227540;27;20019;-85
2021/07/07 00:39:04;;;;;;;1136.15;854.05;;;;;;;;;;5224634;27;20068;-85
2021/07/07 00:41:33;;;;;;;1381.28;901.05;;;;;;;;;;5226688;27;20026;-85
2021/07/07 00:44:04;;;;;;;1438.32;935.75;;;;;;;;;;5225246;27;20066;-84
2021/07/07 00:46:33;;;;;;;1272.95;910.90;;;;;;;;;;5226545;27;20050;-86
2021/07/07 00:49:02;;;;;;;1278.88;914.10;;;;;;;;;;5227742;27;20050;-84
2021/07/07 00:51:31;;;;;;;1345.25;943.03;;;;;;;;;;5231292;27;20053;-85
2021/07/07 00:54:02;;;;;;;1172.90;899.10;;;;;;;;;;5228741;27;20406;-85
2021/07/07 00:56:31;;;;;;;1053.60;868.65;;;;;;;;;;5229670;27;20433;-84
2021/07/07 00:58:59;;;;;;;1340.50;910.10;;;;;;;;;;5228850;27;20410;-85
2021/07/07 01:01:28;;;;;;;917.78;813.72;;;;;;;;;;5229382;27;20101;-85
2021/07/07 01:03:57;;;;;;;1261.18;917.17;;;;;;;;;;5227214;27;20022;-86
2021/07/07 01:06:26;;;;;;;963.33;841.20;;;;;;;;;;5228014;27;20084;-85
2021/07/07 01:08:54;;;;;;;1268.07;912.78;;;;;;;;;;5229788;27;20073;-85
2021/07/07 01:11:22;;;;;;;1440.05;934.37;;;;;;;;;;5222059;27;20088;-85
2021/07/07 01:13:51;;;;;;;1366.47;924.05;;;;;;;;;;5220611;27;20065;-86
2021/07/07 01:16:20;;;;;;;1312.00;897.85;;;;;;;;;;5221590;27;20070;-85
2021/07/07 01:18:48;;;;;;;1099.57;840.35;;;;;;;;;;5222050;27;20045;-85
2021/07/07 01:21:19;;;;;;;993.47;821.53;;;;;;;;;;5223840;27;20041;-85
2021/07/07 01:23:47;;;;;;;1258.87;889.00;;;;;;;;;;5222693;27;20400;-85
2021/07/07 01:26:15;;;;;;;1319.63;929.72;;;;;;;;;;5224742;27;20319;-85
2021/07/07 01:28:45;;;;;;;1132.85;911.03;;;;;;;;;;5225647;27;20331;-85
2021/07/07 01:31:13;;;;;;;953.67;854.72;;;;;;;;;;5224042;27;20052;-85
2021/07/07 01:33:42;;;;;;;926.33;827.00;;;;;;;;;;5222782;27;20860;-85
2021/07/07 01:36:13;;;;;;;1060.65;906.17;;;;;;;;;;5224396;27;20471;-85
2021/07/07 01:38:41;;;;;;;987.20;878.78;;;;;;;;;;5221947;27;20026;-85
2021/07/07 01:41:09;;;;;;;949.25;849.65;;;;;;;;;;5222150;27;20141;-85
2021/07/07 01:43:38;;;;;;;930.60;832.62;;;;;;;;;;5221292;27;20280;-85
2021/07/07 01:46:07;;;;;;;847.08;767.95;;;;;;;;;;5222111;27;20542;-85
2021/07/07 01:48:36;;;;;;;917.58;821.80;;;;;;;;;;5221088;27;20064;-85
2021/07/07 01:51:05;;;;;;;909.97;817.33;;;;;;;;;;5222403;27;20038;-85
2021/07/07 01:53:33;;;;;;;880.67;796.00;;;;;;;;;;5222567;27;20023;-85
2021/07/07 01:56:02;;;;;;;876.83;782.65;;;;;;;;;;5222801;27;20019;-85
2021/07/07 01:58:31;;;;;;;933.67;766.67;;;;;;;;;;5220412;27;20094;-84
2021/07/07 02:01:00;;;;;;;1004.83;807.33;;;;;;;;;;5220910;27;20196;-84
2021/07/07 02:03:29;;;;;;;720.17;648.15;;;;;;;;;;5219653;27;20045;-85
2021/07/07 02:05:57;;;;;;;1287.78;878.75;;;;;;;;;;5220736;27;20061;-85
2021/07/07 02:08:25;;;;;;;1214.05;867.42;;;;;;;;;;5219175;27;20384;-85
2021/07/07 02:10:55;;;;;;;980.20;811.37;;;;;;;;;;5223645;27;20026;-85
2021/07/07 02:13:24;;;;;;;1232.60;898.90;;;;;;;;;;5224775;27;20375;-84
2021/07/07 02:15:56;;;;;;;962.37;838.78;;;;;;;;;;5229690;27;20035;-85
2021/07/07 02:18:24;;;;;;;1215.38;917.45;;;;;;;;;;5207599;27;20390;-85
2021/07/07 02:20:53;;;;;;;925.70;818.30;;;;;;;;;;5208525;27;20076;-85
2021/07/07 02:23:25;;;;;;;818.00;745.25;;;;;;;;;;5224779;27;20037;-85
2021/07/07 02:25:54;;;;;;;923.28;823.33;;;;;;;;;;5228585;27;20006;-85
2021/07/07 02:28:26;;;;;;;942.33;845.90;;;;;;;;;;5207907;27;20429;-85
2021/07/07 02:30:57;;;;;;;937.42;841.80;;;;;;;;;;5226490;27;20388;-85
2021/07/07 02:33:27;;;;;;;1098.55;900.25;;;;;;;;;;5226536;27;20033;-85
2021/07/07 02:35:55;;;;;;;854.60;775.35;;;;;;;;;;5230068;27;20022;-84
2021/07/07 02:38:25;;;;;;;898.83;812.85;;;;;;;;;;5229398;27;20282;-85
2021/07/07 02:40:55;;;;;;;861.83;777.60;;;;;;;;;;5228537;27;20030;-84
2021/07/07 02:43:23;;;;;;;845.33;758.75;;;;;;;;;;5228501;27;20045;-85
2021/07/07 02:45:52;;;;;;;868.62;785.58;;;;;;;;;;5228609;27;20045;-85
2021/07/07 02:48:21;;;;;;;946.33;844.42;;;;;;;;;;5227166;27;20030;-85
2021/07/07 02:50:50;;;;;;;929.03;831.42;;;;;;;;;;5228428;27;20271;-85
2021/07/07 02:53:19;;;;;;;878.35;792.22;;;;;;;;;;5228958;27;20022;-86
2021/07/07 02:55:48;;;;;;;788.55;719.30;;;;;;;;;;5230015;27;20037;-85
2021/07/07 02:58:17;;;;;;;947.65;843.92;;;;;;;;;;5228018;27;20072;-85
2021/07/07 03:00:47;;;;;;;882.55;795.08;;;;;;;;;;5230530;27;20097;-85
2021/07/07 03:03:17;;;;;;;764.40;697.25;;;;;;;;;;5227453;27;20421;-85
2021/07/07 03:05:50;;;;;;;916.15;822.60;;;;;;;;;;5230680;27;20057;-85
2021/07/07 03:08:23;;;;;;;988.33;846.65;;;;;;;;;;5226826;27;20042;-85
2021/07/07 03:28:50;;;;;;;1011.78;838.85;;;;;;;;;;5241034;27;20034;-86
2021/07/07 03:31:48;;;;;;;965.83;837.90;;;;;;;;;;5211090;27;20026;-85
2021/07/07 03:34:32;;;;;;;1150.95;889.72;;;;;;;;;;5240304;27;20041;-86
2021/07/07 03:38:17;;;;;;;865.25;773.88;;;;;;;;;;5155369;27;20569;-86
2021/07/07 03:45:14;;;;;;;913.28;792.78;;;;;;;;;;5108561;27;20520;-88
2021/07/07 03:48:07;;;;;;;744.25;667.67;;;;;;;;;;5177670;27;20034;-86
2021/07/07 03:58:02;;;;;;;1042.45;842.13;;;;;;;;;;5217832;27;20041;-87
2021/07/07 04:01:30;;;;;;;912.22;798.60;;;;;;;;;;5201341;27;20386;-88
2021/07/07 04:04:47;;;;;;;873.22;752.50;;;;;;;;;;5143051;27;20082;-86
2021/07/07 04:07:46;;;;;;;1064.95;844.88;;;;;;;;;;5129259;27;20057;-84
2021/07/07 04:14:04;;;;;;;1127.10;842.10;;;;;;;;;;5093768;27;20149;-85
2021/07/07 04:20:53;;;;;;;974.50;813.28;;;;;;;;;;5073792;28;20028;-86
2021/07/07 04:24:08;;;;;;;;;;;;;;;;;;;;;
2021/07/07 04:35:10;;;;;;;1182.40;875.78;;;;;;;;;;5201580;27;20022;-85
2021/07/07 04:38:12;;;;;;;985.17;807.60;;;;;;;;;;5171534;27;20424;-89
2021/07/07 04:42:08;;;;;;;938.95;817.83;;;;;;;;;;5210454;27;20212;-88
2021/07/07 04:49:59;;;;;;;605.03;551.10;;;;;;;;;;5096639;27;20214;-86
2021/07/07 04:52:54;;;;;;;846.67;752.67;;;;;;;;;;5146217;27;20080;-86
2021/07/07 05:00:09;;;;;;;820.80;733.28;;;;;;;;;;5092380;28;20093;-86
2021/07/07 05:02:53;;;;;;;855.50;751.05;;;;;;;;;;5083475;28;20056;-87
2021/07/07 05:06:01;;;;;;;627.88;565.95;;;;;;;;;;5097450;28;20046;-85
2021/07/07 05:08:37;;;;;;;1090.88;813.12;;;;;;;;;;5095772;28;20027;-87
2021/07/07 05:11:32;;;;;;;1082.53;823.80;;;;;;;;;;5063273;28;20036;-86
2021/07/07 05:14:24;;;;;;;1178.00;882.78;;;;;;;;;;5055896;28;20043;-86
2021/07/07 05:17:15;;;;;;;1205.25;901.60;;;;;;;;;;5012734;28;20429;-85
2021/07/07 05:20:25;;;;;;;1115.88;818.62;;;;;;;;;;5026591;28;20201;-87
2021/07/07 05:23:21;;;;;;;858.53;767.47;;;;;;;;;;5021459;28;20626;-88
2021/07/07 05:26:48;;;;;;;776.30;698.50;;;;;;;;;;4991616;28;20030;-86
2021/07/07 05:29:51;;;;;;;724.90;653.17;;;;;;;;;;5032466;28;20032;-85
2021/07/07 05:35:45;;;;;;;994.53;810.25;;;;;;;;;;5114396;28;20235;-83
2021/07/07 05:38:42;;;;;;;1173.07;887.47;;;;;;;;;;5095238;28;20032;-86
2021/07/07 05:42:40;;;;;;;901.13;801.75;;;;;;;;;;5113006;28;20008;-86
2021/07/07 05:46:08;;;;;;;1065.22;841.25;;;;;;;;;;5114253;28;20020;-86
2021/07/07 05:49:25;;;;;;;792.45;712.67;;;;;;;;;;5097693;28;20404;-84
2021/07/07 05:59:23;;;;;;;985.88;818.90;;;;;;;;;;5076135;28;20036;-83
2021/07/07 06:05:24;;;;;;;1143.18;876.67;;;;;;;;;;5178553;27;20015;-85
2021/07/07 06:08:17;;;;;;;999.05;839.20;;;;;;;;;;5135212;27;20035;-87
2021/07/07 06:10:54;;;;;;;1059.95;839.92;;;;;;;;;;5178785;27;20030;-88
2021/07/07 06:16:42;;;;;;;1226.13;885.72;;;;;;;;;;5172752;27;20446;-86
2021/07/07 06:19:58;;;;;;;1032.38;818.03;;;;;;;;;;5135538;27;20039;-86
2021/07/07 06:22:52;;;;;;;1054.90;827.13;;;;;;;;;;5175342;27;20042;-87
2021/07/07 06:29:05;;;;;;;1077.38;823.65;;;;;;;;;;5192093;27;20058;-86
2021/07/07 06:32:00;;;;;;;1069.13;820.65;;;;;;;;;;5101372;28;20415;-86
2021/07/07 06:34:46;;;;;;;1136.70;850.08;;;;;;;;;;5104848;28;20039;-84
2021/07/07 06:37:17;;;;;;;960.03;794.05;;;;;;;;;;5110252;28;20427;-85
2021/07/07 06:41:12;;;;;;;1084.95;842.42;;;;;;;;;;5090136;28;20044;-86
2021/07/07 06:48:01;;;;;;;1158.75;881.05;;;;;;;;;;5048342;28;20529;-86
2021/07/07 06:50:39;;;;;;;1247.25;899.65;;;;;;;;;;5098663;28;20035;-88
2021/07/07 06:53:47;;;;;;;1162.90;877.90;;;;;;;;;;5104335;28;20406;-87
2021/07/07 06:56:30;;;;;;;1180.07;903.17;;;;;;;;;;5094564;27;20045;-87
2021/07/07 06:59:38;;;;;;;1129.97;858.55;;;;;;;;;;5110772;27;20045;-88
2021/07/07 07:02:14;;;;;;;1145.40;899.50;;;;;;;;;;5158675;27;20015;-88
2021/07/07 07:05:25;;;;;;;1136.82;907.05;;;;;;;;;;5099487;28;20042;-87
2021/07/07 07:14:56;;;;;;;1151.70;916.08;;;;;;;;;;5025096;28;20316;-87
2021/07/07 07:18:10;;;;;;;1205.18;951.37;;;;;;;;;;5090072;27;20094;-86
2021/07/07 07:24:21;;;;;;;1078.32;890.25;;;;;;;;;;5135129;27;20040;-85
2021/07/07 07:27:23;;;;;;;1212.15;912.70;;;;;;;;;;5115904;27;20352;-88
2021/07/07 07:34:15;;;;;;;947.42;847.12;;;;;;;;;;5018053;28;20115;-84
2021/07/07 07:37:19;;;;;;;905.40;812.95;;;;;;;;;;5013869;28;20625;-86
2021/07/07 07:39:58;;;;;;;1015.92;885.95;;;;;;;;;;5029291;28;20022;-85
2021/07/07 07:42:32;;;;;;;1221.82;906.38;;;;;;;;;;5016394;28;20022;-89
2021/07/07 07:48:09;;;;;;;1344.55;949.17;;;;;;;;;;5029711;28;20444;-86
2021/07/07 07:51:51;;;;;;;1132.20;923.10;;;;;;;;;;5040311;28;20099;-89
2021/07/07 07:54:50;;;;;;;1122.90;910.08;;;;;;;;;;5080450;28;20028;-87
2021/07/07 07:58:07;;;;;;;1231.28;928.53;;;;;;;;;;5066786;28;20192;-90
2021/07/07 08:01:24;;;;;;;1253.53;925.37;;;;;;;;;;5147060;27;20408;-86
2021/07/07 08:04:19;;;;;;;978.75;804.50;;;;;;;;;;5224426;27;20214;-85
2021/07/07 08:07:22;;;;;;;1029.10;831.05;;;;;;;;;;5164442;27;20042;-86
2021/07/07 08:13:59;;;;;;;1327.40;941.90;;;;;;;;;;5174150;27;20392;-87
2021/07/07 08:16:49;;;;;;;;;;;;;;;;;;;;;
2021/07/07 08:19:23;;;;;;;1322.63;935.42;;;;;;;;;;5177179;27;20034;-87
2021/07/07 08:26:21;;;;;;;;;;;;;;;;;;5088053;27;20097;-87
2021/07/07 08:28:58;;;;;;;1051.93;893.08;;;;;;;;;;5137281;27;20310;-90
2021/07/07 08:34:51;;;;;;;1330.70;938.65;;;;;;;;;;5138035;27;20411;-89
2021/07/07 08:38:02;;;;;;;1149.50;898.30;;;;;;;;;;5216699;27;20033;-88
2021/07/07 08:41:12;;;;;;;1584.75;969.37;;;;;;;;;;5141723;27;20038;-89
2021/07/07 08:47:45;;;;;;;1610.25;975.67;;;;;;;;;;5094641;28;20066;-89
2021/07/07 08:50:58;;;;;;;;;;;;;;;;;;;;;
2021/07/07 08:53:53;;;;;;;1637.57;973.83;;;;;;;;;;5043367;28;20463;-87
2021/07/07 08:56:28;;;;;;;1552.10;982.60;;;;;;;;;;5053902;28;20381;-86
2021/07/07 08:59:19;;;;;;;1454.68;967.80;;;;;;;;;;5092588;28;20016;-90
2021/07/07 09:02:26;;;;;;;1315.00;925.15;;;;;;;;;;5109872;28;20024;-88
2021/07/07 09:05:29;;;;;;;1175.57;902.53;;;;;;;;;;5128314;27;20066;-86
2021/07/07 09:08:48;;;;;;;;;;;;;;;;;;;;;
2021/07/07 09:12:27;;;;;;;1351.22;955.00;;;;;;;;;;5100549;28;20068;-89
2021/07/07 09:16:29;;;;;;;1016.22;882.92;;;;;;;;;;5094887;28;20051;-88
2021/07/07 09:23:07;;;;;;;1334.75;953.78;;;;;;;;;;4993897;28;20442;-88
2021/07/07 09:25:53;;;;;;;1238.32;923.20;;;;;;;;;;5050279;28;20246;-89
2021/07/07 09:29:02;;;;;;;893.47;795.22;;;;;;;;;;5125633;27;20091;-88
2021/07/07 09:31:53;;;;;;;997.75;849.72;;;;;;;;;;5089610;28;20051;-89
2021/07/07 09:35:01;;;;;;;1090.07;852.22;;;;;;;;;;5091547;28;20040;-90
2021/07/07 09:37:57;;;;;;;875.78;781.53;;;;;;;;;;5059010;28;20023;-88
2021/07/07 09:41:26;;;;;;;1057.70;837.37;;;;;;;;;;5005411;28;20047;-87
2021/07/07 09:47:32;;;;;;;861.30;761.28;;;;;;;;;;5177466;27;20038;-87
2021/07/07 09:50:47;;;;;;;868.95;773.85;;;;;;;;;;5157327;27;20041;-85
2021/07/07 09:54:15;;;;;;;1165.53;846.47;;;;;;;;;;5170100;27;20092;-87
2021/07/07 09:56:52;;;;;;;1089.85;825.08;;;;;;;;;;5181819;27;20222;-87
2021/07/07 10:06:35;;;;;;;1187.13;863.00;;;;;;;;;;5143184;27;20362;-86
2021/07/07 10:15:50;;;;;;;870.80;778.53;;;;;;;;;;5227719;27;20161;-87
2021/07/07 10:19:02;;;;;;;1186.80;879.63;;;;;;;;;;5117404;27;20449;-84
2021/07/07 10:24:40;;;;;;;798.90;723.25;;;;;;;;;;5209597;27;20068;-89
2021/07/07 10:43:06;;;;;;;1915.38;998.97;;;;;;;;;;5227373;27;20044;-90
2021/07/07 10:47:10;;;;;;;1652.00;971.22;;;;;;;;;;5094854;28;20479;-89
2021/07/07 10:50:01;;;;;;;1615.40;950.83;;;;;;;;;;5065558;28;20100;-85
2021/07/07 11:00:15;;;;;;;;;;;;;;;;;;;;;
2021/07/07 11:07:08;;;;;;;1715.30;986.08;;;;;;;;;;5094742;28;20043;-87
2021/07/07 11:13:21;;;;;;;1797.35;966.25;;;;;;;;;;5094574;28;20133;-87
2021/07/07 11:23:41;;;;;;;1489.82;905.45;;;;;;;;;;4940583;28;20053;-85
2021/07/07 11:30:22;;;;;;;1929.57;999.40;;;;;;;;;;4995862;28;20059;-87
2021/07/07 11:33:34;;;;;;;1631.38;955.97;;;;;;;;;;4928017;29;20394;-87
2021/07/07 11:36:54;;;;;;;1999.90;999.90;;;;;;;;;;4976407;28;20038;-86
2021/07/07 15:29:25;;;;;;;1993.20;999.40;;;;;;;;;;5250639;27;20326;-83
2021/07/07 15:31:55;;;;;;;1735.05;967.20;;;;;;;;;;5247078;27;20515;-84
2021/07/07 15:34:24;;;;;;;1887.65;983.35;;;;;;;;;;5243881;27;20444;-84
2021/07/07 15:36:52;;;;;;;1873.00;993.55;;;;;;;;;;5247780;27;20427;-83
2021/07/07 15:39:21;;;;;;;1814.35;946.87;;;;;;;;;;5249538;27;20030;-83
2021/07/07 15:41:50;;;;;;;1999.90;999.90;;;;;;;;;;5242806;27;20049;-83
2021/07/07 15:44:19;;;;;;;1600.88;950.28;;;;;;;;;;5224613;27;20053;-83
2021/07/07 15:46:49;;;;;;;1880.15;991.28;;;;;;;;;;5241791;27;20053;-84
2021/07/07 15:49:20;;;;;;;1757.30;972.90;;;;;;;;;;5240525;27;20440;-84
2021/07/07 15:51:50;;;;;;;1795.78;978.22;;;;;;;;;;5245697;27;20910;-84
2021/07/07 15:54:20;;;;;;;1372.88;904.00;;;;;;;;;;5241221;27;20626;-84
2021/07/07 15:56:49;;;;;;;1616.95;957.47;;;;;;;;;;5242708;27;20026;-84
2021/07/07 15:59:18;;;;;;;1845.20;959.92;;;;;;;;;;5248482;27;20034;-83
2021/07/07 16:01:49;;;;;;;1907.72;983.75;;;;;;;;;;5242549;27;20591;-84
2021/07/07 16:04:18;;;;;;;1552.45;930.10;;;;;;;;;;5241779;27;20053;-84
2021/07/07 16:06:47;;;;;;;1761.03;975.80;;;;;;;;;;5246624;27;20064;-84
2021/07/07 16:09:16;;;;;;;1436.50;913.42;;;;;;;;;;5229115;27;20549;-83
2021/07/07 16:11:44;;;;;;;1999.90;998.50;;;;;;;;;;5247295;27;20356;-84
2021/07/07 16:14:13;;;;;;;1543.15;913.85;;;;;;;;;;5247208;27;20018;-84
2021/07/07 16:16:41;;;;;;;1944.25;981.83;;;;;;;;;;5223780;27;20455;-84
2021/07/07 16:19:12;;;;;;;1431.78;912.35;;;;;;;;;;5229007;27;20061;-84
2021/07/07 16:21:44;;;;;;;1948.60;996.00;;;;;;;;;;5248281;27;20358;-84
2021/07/07 16:24:13;;;;;;;1718.78;967.17;;;;;;;;;;5251580;27;20030;-84
2021/07/07 16:26:41;;;;;;;1524.15;940.10;;;;;;;;;;5244268;27;20085;-84
2021/07/07 16:29:11;;;;;;;1592.50;961.30;;;;;;;;;;5225437;27;20523;-84
2021/07/07 16:31:39;;;;;;;1289.22;894.28;;;;;;;;;;5250584;27;20033;-84
2021/07/07 16:34:08;;;;;;;1634.13;956.20;;;;;;;;;;5238239;27;20105;-84
2021/07/07 16:36:37;;;;;;;1591.10;951.92;;;;;;;;;;5244872;27;20049;-84
2021/07/07 16:39:06;;;;;;;1411.10;904.00;;;;;;;;;;5246207;27;20609;-84
2021/07/07 16:41:34;;;;;;;1750.63;961.60;;;;;;;;;;5244103;27;20530;-85
2021/07/07 16:44:03;;;;;;;1783.10;986.55;;;;;;;;;;5224309;27;20042;-84
2021/07/07 16:46:34;;;;;;;1642.63;897.28;;;;;;;;;;5228259;27;20602;-83
2021/07/07 16:49:02;;;;;;;1214.07;870.60;;;;;;;;;;5223638;27;20033;-84
2021/07/07 16:51:31;;;;;;;1805.03;976.78;;;;;;;;;;5224724;27;20600;-84
2021/07/07 16:54:00;;;;;;;1999.90;999.90;;;;;;;;;;5235616;27;20019;-84
2021/07/07 16:56:28;;;;;;;1179.47;847.63;;;;;;;;;;5243588;27;20045;-84
2021/07/07 16:58:57;;;;;;;1759.55;948.78;;;;;;;;;;5248043;27;20053;-84
2021/07/07 17:01:25;;;;;;;1715.65;950.00;;;;;;;;;;5242406;27;20049;-85
2021/07/07 17:03:55;;;;;;;1526.00;914.17;;;;;;;;;;5238148;27;20498;-85
2021/07/07 17:06:27;;;;;;;1461.25;904.35;;;;;;;;;;5221897;27;20413;-84
2021/07/07 17:08:56;;;;;;;1876.63;954.05;;;;;;;;;;5238843;27;20003;-84
2021/07/07 17:11:24;;;;;;;1688.30;922.10;;;;;;;;;;5240762;27;20570;-85
2021/07/07 17:13:53;;;;;;;1440.20;870.58;;;;;;;;;;5222106;27;20509;-84
2021/07/07 17:16:22;;;;;;;1497.50;875.88;;;;;;;;;;5242939;27;20056;-84
2021/07/07 17:18:52;;;;;;;1513.55;876.15;;;;;;;;;;5222210;27;20038;-85
2021/07/07 17:21:20;;;;;;;1416.00;844.22;;;;;;;;;;5242398;27;20069;-85
2021/07/07 17:23:49;;;;;;;1389.65;817.75;;;;;;;;;;5243138;27;20408;-84
2021/07/07 17:26:18;;;;;;;1578.00;890.20;;;;;;;;;;5241564;27;20056;-84
2021/07/07 17:28:46;;;;;;;1159.47;808.42;;;;;;;;;;5243086;27;20088;-84
2021/07/07 17:31:15;;;;;;;1082.60;778.95;;;;;;;;;;5242096;27;20396;-84
2021/07/07 17:33:44;;;;;;;1778.28;941.00;;;;;;;;;;5239582;27;20045;-85
2021/07/07 17:36:12;;;;;;;1581.90;892.28;;;;;;;;;;5242113;27;20191;-84
2021/07/07 17:38:41;;;;;;;1324.70;851.35;;;;;;;;;;5240076;27;20053;-84
2021/07/07 17:41:09;;;;;;;1377.53;850.38;;;;;;;;;;5239987;27;20040;-84
2021/07/07 17:43:38;;;;;;;1301.05;857.92;;;;;;;;;;5240637;27;20044;-84
2021/07/07 17:46:08;;;;;;;954.05;757.00;;;;;;;;;;5221815;27;20482;-84
2021/07/07 17:48:37;;;;;;;1144.45;806.92;;;;;;;;;;5239934;27;20006;-84
2021/07/07 17:51:06;;;;;;;1303.50;843.88;;;;;;;;;;5224471;27;20804;-84
2021/07/07 17:53:35;;;;;;;1530.03;856.78;;;;;;;;;;5237772;27;20368;-83
2021/07/07 17:56:04;;;;;;;1096.25;791.70;;;;;;;;;;5238207;27;20057;-84
2021/07/07 17:58:33;;;;;;;1313.50;800.58;;;;;;;;;;5238695;27;20049;-84
2021/07/07 18:01:02;;;;;;;1275.75;818.25;;;;;;;;;;5235713;27;20036;-85
2021/07/07 18:03:31;;;;;;;1508.72;854.30;;;;;;;;;;5243532;27;20774;-84
2021/07/07 18:05:59;;;;;;;1417.18;850.03;;;;;;;;;;5236103;27;20038;-85
2021/07/07 18:08:33;;;;;;;;;;;;;;;;;;5238239;27;20030;-84
2021/07/07 18:11:06;;;;;;;1173.80;797.03;;;;;;;;;;5237525;27;20445;-84
2021/07/07 18:13:34;;;;;;;1642.30;893.88;;;;;;;;;;5235409;27;20045;-84
2021/07/07 18:16:04;;;;;;;1708.72;924.65;;;;;;;;;;5236529;27;20049;-84
2021/07/07 18:18:33;;;;;;;1486.40;893.75;;;;;;;;;;5241007;27;20033;-84
2021/07/07 18:21:02;;;;;;;1713.35;973.30;;;;;;;;;;5248707;27;20021;-83
2021/07/07 18:23:31;;;;;;;1598.85;975.88;;;;;;;;;;5239870;27;20095;-84
2021/07/07 18:26:00;;;;;;;1568.28;997.90;;;;;;;;;;5218381;27;20380;-84
2021/07/07 18:28:29;;;;;;;1637.20;999.38;;;;;;;;;;5237652;27;20113;-84
2021/07/07 18:30:58;;;;;;;1872.72;999.90;;;;;;;;;;5240533;27;20021;-84
2021/07/07 18:33:27;;;;;;;1307.68;977.45;;;;;;;;;;5238592;27;20069;-84
2021/07/07 18:35:56;;;;;;;1772.90;999.72;;;;;;;;;;5239248;27;20459;-83
2021/07/07 18:38:25;;;;;;;1985.43;999.90;;;;;;;;;;5242511;27;20073;-84
2021/07/07 18:40:53;;;;;;;1750.60;999.90;;;;;;;;;;5242071;27;20057;-84
2021/07/07 18:43:22;;;;;;;1644.25;999.90;;;;;;;;;;5222233;27;20096;-84
2021/07/07 18:45:51;;;;;;;1886.55;999.90;;;;;;;;;;5239577;27;20054;-85
2021/07/07 18:48:19;;;;;;;1510.90;999.90;;;;;;;;;;5238642;27;20038;-84
2021/07/07 18:50:49;;;;;;;1808.38;998.35;;;;;;;;;;5237881;27;20033;-84
2021/07/07 18:53:18;;;;;;;1627.80;995.90;;;;;;;;;;5239642;27;20358;-84
2021/07/07 18:55:46;;;;;;;1897.78;999.90;;;;;;;;;;5240568;27;20045;-84
2021/07/07 18:58:15;;;;;;;1853.18;999.90;;;;;;;;;;5237590;27;20070;-83
2021/07/07 19:00:44;;;;;;;1551.32;978.03;;;;;;;;;;5239179;27;20379;-83
2021/07/07 19:03:12;;;;;;;1634.82;996.50;;;;;;;;;;5244565;27;20517;-84
2021/07/07 19:05:42;;;;;;;967.62;865.42;;;;;;;;;;5241714;27;20053;-83
2021/07/07 19:08:14;;;;;;;1861.95;987.45;;;;;;;;;;5240175;27;20240;-83
2021/07/07 19:10:43;;;;;;;1979.03;966.42;;;;;;;;;;5245414;27;20060;-83
2021/07/07 19:13:11;;;;;;;1394.82;900.35;;;;;;;;;;5245943;27;20132;-84
2021/07/07 19:15:40;;;;;;;1651.53;928.92;;;;;;;;;;5239280;27;20056;-84
2021/07/07 19:18:11;;;;;;;1797.47;938.35;;;;;;;;;;5238230;27;20052;-84
2021/07/07 19:20:42;;;;;;;1518.85;905.85;;;;;;;;;;5242204;27;20405;-83
2021/07/07 19:23:15;;;;;;;1417.13;871.33;;;;;;;;;;5240139;27;20244;-83
2021/07/07 19:25:44;;;;;;;1530.75;841.28;;;;;;;;;;5242570;27;20463;-84
2021/07/07 19:28:14;;;;;;;1792.00;915.53;;;;;;;;;;5242747;27;20034;-84
2021/07/07 19:30:42;;;;;;;1461.80;896.42;;;;;;;;;;5249802;27;20475;-84
2021/07/07 19:33:11;;;;;;;1544.15;911.08;;;;;;;;;;5218504;27;20064;-84
2021/07/07 19:35:41;;;;;;;1495.57;902.47;;;;;;;;;;5245668;27;20091;-84
2021/07/07 19:38:09;;;;;;;1119.57;865.62;;;;;;;;;;5246298;27;20077;-84
2021/07/07 19:40:39;;;;;;;1508.45;940.40;;;;;;;;;;5246533;27;20056;-84
2021/07/07 19:43:08;;;;;;;1487.22;902.08;;;;;;;;;;5227847;27;20466;-84
2021/07/07 19:45:36;;;;;;;1381.68;920.58;;;;;;;;;;5250126;27;20395;-84
2021/07/07 19:48:11;;;;;;;1756.13;970.92;;;;;;;;;;5247765;27;20073;-84
2021/07/07 19:50:40;;;;;;;1420.63;927.45;;;;;;;;;;5246960;27;20018;-84
2021/07/07 19:53:08;;;;;;;1206.47;928.85;;;;;;;;;;5247009;27;20363;-84
2021/07/07 19:55:40;;;;;;;1310.53;911.97;;;;;;;;;;5238294;27;20613;-85
2021/07/07 19:58:09;;;;;;;1466.10;919.53;;;;;;;;;;5248299;27;20026;-84
2021/07/07 20:00:37;;;;;;;1235.05;885.33;;;;;;;;;;5209337;27;20354;-84
2021/07/07 20:03:06;;;;;;;1158.72;840.70;;;;;;;;;;5247627;27;20417;-84
2021/07/07 20:05:35;;;;;;;1347.07;885.00;;;;;;;;;;5244826;27;20026;-84
2021/07/07 20:08:03;;;;;;;1749.40;921.65;;;;;;;;;;5248436;27;20019;-84
2021/07/07 20:10:32;;;;;;;1745.50;958.80;;;;;;;;;;5227406;27;20050;-85
2021/07/07 20:13:02;;;;;;;1461.72;927.00;;;;;;;;;;5248037;27;20110;-84
2021/07/07 20:15:30;;;;;;;1657.00;961.75;;;;;;;;;;5250606;27;20059;-84
2021/07/07 20:17:59;;;;;;;1736.72;975.70;;;;;;;;;;5246444;27;20188;-84
2021/07/07 20:20:27;;;;;;;1251.53;903.70;;;;;;;;;;5251755;27;20527;-84
2021/07/07 20:22:56;;;;;;;1487.32;918.00;;;;;;;;;;5240601;27;20068;-86
2021/07/07 20:25:25;;;;;;;1237.80;879.28;;;;;;;;;;5237775;27;20052;-84
2021/07/07 20:27:53;;;;;;;1051.63;838.72;;;;;;;;;;5237764;27;20088;-85
2021/07/07 20:30:22;;;;;;;1152.35;893.85;;;;;;;;;;5239450;27;20048;-84
2021/07/07 20:32:50;;;;;;;1551.38;991.83;;;;;;;;;;5241118;27;20018;-85
2021/07/07 20:35:19;;;;;;;1659.65;999.90;;;;;;;;;;5237278;27;20400;-84
2021/07/07 20:37:48;;;;;;;1999.90;999.90;;;;;;;;;;5236718;27;20302;-84
2021/07/07 20:40:17;;;;;;;1994.72;999.90;;;;;;;;;;5239592;27;20638;-84
2021/07/07 20:42:50;;;;;;;1851.03;999.90;;;;;;;;;;5242572;27;20113;-85
2021/07/07 20:45:20;;;;;;;1540.90;994.95;;;;;;;;;;5247776;27;20064;-85
2021/07/07 20:47:48;;;;;;;1925.35;999.90;;;;;;;;;;5235978;27;20088;-86
2021/07/07 20:50:18;;;;;;;1786.50;999.90;;;;;;;;;;5236910;27;20018;-85
2021/07/07 20:52:47;;;;;;;1789.75;999.90;;;;;;;;;;5235894;27;20225;-85
2021/07/07 20:55:15;;;;;;;1371.00;999.90;;;;;;;;;;5237808;27;20038;-85
2021/07/07 20:57:44;;;;;;;1624.05;999.25;;;;;;;;;;5243006;27;20041;-85
2021/07/07 21:00:21;;;;;;;1303.07;978.60;;;;;;;;;;5247695;27;20140;-83
2021/07/07 21:02:50;;;;;;;1772.03;999.90;;;;;;;;;;5239310;27;20088;-85
2021/07/07 21:05:20;;;;;;;1541.57;999.90;;;;;;;;;;5220930;27;20461;-84
2021/07/07 21:07:49;;;;;;;1773.18;999.90;;;;;;;;;;5244068;27;20014;-84
2021/07/07 21:10:19;;;;;;;1143.97;926.45;;;;;;;;;;5240065;27;20042;-85
2021/07/07 21:12:47;;;;;;;1690.57;999.00;;;;;;;;;;5234513;27;20041;-84
2021/07/07 21:15:23;;;;;;;1555.97;951.10;;;;;;;;;;5236862;27;20376;-84
2021/07/07 21:17:52;;;;;;;1266.82;923.05;;;;;;;;;;5241000;27;20466;-84
2021/07/07 21:20:21;;;;;;;1451.07;934.40;;;;;;;;;;5240881;27;20352;-84
2021/07/07 21:22:50;;;;;;;1301.63;911.30;;;;;;;;;;5235675;27;20566;-84
2021/07/07 21:25:20;;;;;;;1393.93;937.80;;;;;;;;;;5242136;27;20022;-85
2021/07/07 21:27:50;;;;;;;1474.40;953.47;;;;;;;;;;5241057;27;20526;-86
2021/07/07 21:30:19;;;;;;;1539.00;974.00;;;;;;;;;;5219574;27;20120;-85
2021/07/07 21:32:48;;;;;;;1693.63;999.90;;;;;;;;;;5237018;27;20509;-85
2021/07/07 21:35:18;;;;;;;1547.32;978.05;;;;;;;;;;5224456;27;20117;-84
2021/07/07 21:37:47;;;;;;;1112.47;909.90;;;;;;;;;;5239317;27;20049;-84
2021/07/07 21:40:17;;;;;;;1413.78;972.08;;;;;;;;;;5238013;27;20492;-85
2021/07/07 21:42:47;;;;;;;1409.65;979.80;;;;;;;;;;5237899;27;20557;-85